Time;durP1;ratioP1;P1;durP2;ratioP2;P2;SDS_P1;SDS_P2;PMS_P1;PMS_P2;Temp;Humidity;BMP_temperature;BMP_pressure;BME280_temperature;BME280_humidity;BME280_pressure;Samples;Min_cycle;Max_cycle;Signal;HPM_P1;HPM_P2
2023/08/06 00:01:29;;;;;;;;;;;;;;;21.07;73.02;93495.09;4223888;28;19969;-79
2023/08/06 00:03:31;;;;;;;;;;;;;;;21.01;72.83;93502.25;4223912;28;19928;-79
2023/08/06 00:05:33;;;;;;;;;;;;;;;21.06;73.22;93549.44;4214890;28;19927;-80
2023/08/06 00:07:35;;;;;;;;;;;;;;;21.09;72.22;93556.91;4240634;27;20037;-79
2023/08/06 00:09:37;;;;;;;;;;;;;;;21.09;72.59;93540.94;4237442;27;19932;-78
2023/08/06 00:11:38;;;;;;;;;;;;;;;21.06;74.22;93555.56;4234611;27;19928;-79
2023/08/06 00:13:40;;;;;;;;;;;;;;;21.03;73.79;93556.03;4233362;27;20359;-78
2023/08/06 00:15:42;;;;;;;;;;;;;;;21.00;73.50;93545.91;4220362;28;19923;-78
2023/08/06 00:17:44;;;;;;;;;;;;;;;20.73;72.56;93543.22;4227560;27;20014;-79
2023/08/06 00:19:46;;;;;;;;;;;;;;;20.55;73.40;93543.53;4232822;27;20021;-78
2023/08/06 00:21:48;;;;;;;;;;;;;;;20.54;74.23;93539.25;4242455;27;19924;-79
2023/08/06 00:23:52;;;;;;;;;;;;;;;20.56;74.20;93545.13;4241781;27;19927;-79
2023/08/06 00:25:53;;;;;;;;;;;;;;;20.62;74.66;93547.63;4222768;28;19928;-78
2023/08/06 00:27:56;;;;;;;;;;;;;;;20.56;73.21;93543.28;4240285;27;20076;-77
2023/08/06 00:29:58;;;;;;;;;;;;;;;20.39;71.41;93540.72;4218204;27;19942;-79
2023/08/06 00:32:00;;;;;;;;;;;;;;;20.35;72.08;93533.44;4242552;27;19931;-79
2023/08/06 00:34:01;;;;;;;;;;;;;;;20.35;71.82;93526.28;4220296;28;20347;-78
2023/08/06 00:36:03;;;;;;;;;;;;;;;20.31;72.54;93525.19;4220024;28;19966;-79
2023/08/06 00:38:05;;;;;;;;;;;;;;;20.36;73.70;93519.13;4238016;27;19928;-80
2023/08/06 00:40:07;;;;;;;;;;;;;;;20.45;75.07;93521.06;4233307;27;20226;-77
2023/08/06 00:42:09;;;;;;;;;;;;;;;20.52;74.80;93510.25;4232458;27;20019;-79
2023/08/06 00:44:11;;;;;;;;;;;;;;;20.52;74.51;93509.44;4242813;27;19958;-77
2023/08/06 00:46:12;;;;;;;;;;;;;;;20.55;74.87;93514.28;4217234;27;20355;-78
2023/08/06 00:48:14;;;;;;;;;;;;;;;20.57;74.61;93517.50;4223763;28;20036;-77
2023/08/06 00:50:17;;;;;;;;;;;;;;;20.54;72.88;93517.97;4232979;27;19934;-78
2023/08/06 00:52:19;;;;;;;;;;;;;;;20.44;72.84;93514.16;4210233;28;20548;-78
2023/08/06 00:54:21;;;;;;;;;;;;;;;20.26;73.33;93519.78;4195748;28;19949;-80
2023/08/06 00:56:22;;;;;;;;;;;;;;;20.23;73.93;93507.78;4252555;27;20256;-81
2023/08/06 00:58:24;;;;;;;;;;;;;;;20.29;74.63;93510.53;4213245;27;19932;-80
2023/08/06 01:00:26;;;;;;;;;;;;;;;20.38;74.25;93495.72;4198660;28;20042;-79
2023/08/06 01:02:27;;;;;;;;;;;;;;;20.36;73.21;93493.31;4220231;28;20267;-78
2023/08/06 01:04:29;;;;;;;;;;;;;;;20.38;73.31;93499.19;4236111;27;19989;-80
2023/08/06 01:06:37;;;;;;;;;;;;;;;20.40;72.70;93489.09;4245368;27;20007;-78
2023/08/06 01:08:51;;;;;;;;;;;;;;;20.38;73.13;93471.78;4223764;28;19924;-79
2023/08/06 01:10:59;;;;;;;;;;;;;;;20.40;73.48;93467.81;4214465;28;19982;-79
2023/08/06 01:13:07;;;;;;;;;;;;;;;20.42;73.42;93457.75;4235484;27;19931;-77
2023/08/06 01:15:15;;;;;;;;;;;;;;;20.51;73.61;93474.06;4198757;28;19935;-78
2023/08/06 01:17:17;;;;;;;;;;;;;;;20.54;74.48;93473.56;4234753;27;19924;-78
2023/08/06 01:19:19;;;;;;;;;;;;;;;20.58;74.70;93474.69;4234220;27;20022;-78
2023/08/06 01:21:20;;;;;;;;;;;;;;;20.47;73.87;93472.94;4211483;28;19935;-77
2023/08/06 01:23:22;;;;;;;;;;;;;;;20.44;73.09;93471.59;4230009;27;19939;-80
2023/08/06 01:25:26;;;;;;;;;;;;;;;20.40;73.08;93473.16;4209895;28;19924;-80
2023/08/06 01:27:38;;;;;;;;;;;;;;;20.38;73.07;93469.13;4218273;27;19986;-80
2023/08/06 01:29:59;;;;;;;;;;;;;;;20.25;73.41;93465.81;4222018;28;20007;-78
2023/08/06 01:32:01;;;;;;;;;;;;;;;20.23;74.26;93457.25;4231584;27;20021;-78
2023/08/06 01:34:03;;;;;;;;;;;;;;;20.35;74.44;93451.00;4225065;28;19924;-79
2023/08/06 01:36:04;;;;;;;;;;;;;;;20.48;73.99;93453.28;4239453;27;19935;-78
2023/08/06 01:38:06;;;;;;;;;;;;;;;20.56;73.54;93441.38;4235794;27;20289;-79
2023/08/06 01:40:11;;;;;;;;;;;;;;;20.55;73.29;93450.44;4221946;28;20011;-80
2023/08/06 01:42:13;;;;;;;;;;;;;;;19.80;75.73;93458.09;4213957;28;19924;-78
2023/08/06 01:44:16;;;;;;;;;;;;;;;19.48;77.31;93453.38;4243647;27;20252;-78
2023/08/06 01:46:18;;;;;;;;;;;;;;;19.24;78.39;93448.25;4214037;28;19928;-77
2023/08/06 01:48:19;;;;;;;;;;;;;;;19.08;79.67;93453.56;4234794;27;19928;-81
2023/08/06 01:50:22;;;;;;;;;;;;;;;19.14;80.38;93453.41;4233702;27;20027;-79
2023/08/06 01:52:24;;;;;;;;;;;;;;;19.26;79.78;93463.16;4241276;27;20543;-77
2023/08/06 01:54:25;;;;;;;;;;;;;;;19.45;78.04;93459.19;4227755;27;19931;-76
2023/08/06 01:56:27;;;;;;;;;;;;;;;19.67;77.56;93456.56;4232455;27;20422;-76
2023/08/06 01:58:29;;;;;;;;;;;;;;;19.87;76.66;93448.06;4236741;27;19923;-77
2023/08/06 02:00:33;;;;;;;;;;;;;;;20.09;76.27;93457.88;4227041;27;19946;-78
2023/08/06 02:02:35;;;;;;;;;;;;;;;20.26;75.54;93447.97;4229382;27;20209;-78
2023/08/06 02:04:36;;;;;;;;;;;;;;;20.37;74.52;93440.91;4209530;28;19981;-78
2023/08/06 02:06:38;;;;;;;;;;;;;;;20.49;74.17;93432.81;4217719;28;20254;-80
2023/08/06 02:08:40;;;;;;;;;;;;;;;20.57;73.58;93430.53;4240958;27;19954;-79
2023/08/06 02:10:41;;;;;;;;;;;;;;;20.64;73.42;93422.34;4200665;28;19934;-79
2023/08/06 02:12:48;;;;;;;;;;;;;;;20.71;73.07;93432.75;4231764;27;20037;-77
2023/08/06 02:14:50;;;;;;;;;;;;;;;20.76;73.10;93444.28;4226656;27;19930;-79
2023/08/06 02:16:52;;;;;;;;;;;;;;;20.78;73.10;93446.66;4242135;27;19938;-78
2023/08/06 02:18:54;;;;;;;;;;;;;;;20.82;72.97;93450.44;4241242;27;20134;-78
2023/08/06 02:20:57;;;;;;;;;;;;;;;20.84;72.52;93462.44;4243322;27;19931;-78
2023/08/06 02:22:58;;;;;;;;;;;;;;;20.83;72.53;93468.81;4244149;27;19924;-80
2023/08/06 02:25:00;;;;;;;;;;;;;;;20.83;72.74;93471.47;4243564;27;19974;-78
2023/08/06 02:27:02;;;;;;;;;;;;;;;20.73;73.53;93458.06;4238826;27;19923;-78
2023/08/06 02:29:03;;;;;;;;;;;;;;;20.70;74.39;93453.25;4237935;27;19935;-78
2023/08/06 02:31:08;;;;;;;;;;;;;;;20.70;74.37;93442.63;4244684;27;19942;-77
2023/08/06 02:33:10;;;;;;;;;;;;;;;20.70;74.21;93439.97;4209050;27;19924;-77
2023/08/06 02:35:12;;;;;;;;;;;;;;;20.58;74.47;93432.13;4199432;28;20220;-78
2023/08/06 02:37:13;;;;;;;;;;;;;;;20.59;75.08;93455.03;4239699;27;20022;-76
2023/08/06 02:39:15;;;;;;;;;;;;;;;20.62;74.74;93473.13;4244669;27;20414;-77
2023/08/06 02:41:17;;;;;;;;;;;;;;;20.67;74.62;93480.34;4241553;27;19969;-77
2023/08/06 02:43:20;;;;;;;;;;;;;;;20.64;74.80;93483.53;4233443;27;19959;-77
2023/08/06 02:45:21;;;;;;;;;;;;;;;20.62;74.68;93483.78;4235008;27;19928;-78
2023/08/06 02:47:23;;;;;;;;;;;;;;;20.67;74.56;93477.69;4235869;27;19923;-76
2023/08/06 02:49:27;;;;;;;;;;;;;;;20.67;74.13;93469.72;4238700;27;20016;-79
2023/08/06 02:51:29;;;;;;;;;;;;;;;20.64;74.65;93460.38;4232268;27;20246;-77
2023/08/06 02:53:33;;;;;;;;;;;;;;;20.49;74.77;93438.91;4243139;27;20350;-78
2023/08/06 02:55:35;;;;;;;;;;;;;;;20.21;74.96;93424.00;4234246;27;19927;-77
2023/08/06 02:57:37;;;;;;;;;;;;;;;20.12;76.12;93425.50;4208744;28;19968;-77
2023/08/06 02:59:39;;;;;;;;;;;;;;;20.18;77.03;93408.56;4210745;28;20326;-78
2023/08/06 03:01:40;;;;;;;;;;;;;;;20.21;77.43;93416.03;4234342;27;20350;-77
2023/08/06 03:03:43;;;;;;;;;;;;;;;20.28;77.85;93437.09;4223547;28;20676;-77
2023/08/06 03:05:51;;;;;;;;;;;;;;;20.41;77.39;93426.88;4212431;28;20014;-76
2023/08/06 03:07:52;;;;;;;;;;;;;;;19.91;78.23;93387.25;4228636;27;20031;-79
2023/08/06 03:09:54;;;;;;;;;;;;;;;19.83;79.52;93386.66;4212696;28;20255;-78
2023/08/06 03:11:56;;;;;;;;;;;;;;;19.92;80.35;93399.47;4210271;28;20050;-79
2023/08/06 03:13:58;;;;;;;;;;;;;;;20.08;79.83;93435.81;4223131;28;19959;-75
2023/08/06 03:15:59;;;;;;;;;;;;;;;20.23;79.29;93443.16;4215632;28;20044;-77
2023/08/06 03:18:01;;;;;;;;;;;;;;;20.36;78.14;93420.69;4232723;27;19927;-78
2023/08/06 03:20:03;;;;;;;;;;;;;;;20.46;78.22;93391.56;4216751;28;19928;-79
2023/08/06 03:22:06;;;;;;;;;;;;;;;20.47;78.56;93371.88;4237072;27;20266;-77
2023/08/06 03:24:08;;;;;;;;;;;;;;;20.50;78.89;93389.16;4200833;28;19924;-79
2023/08/06 03:26:09;;;;;;;;;;;;;;;20.60;78.44;93415.91;4233410;27;20049;-78
2023/08/06 03:28:11;;;;;;;;;;;;;;;20.65;77.42;93414.09;4226525;28;19978;-78
2023/08/06 03:30:13;;;;;;;;;;;;;;;20.72;77.06;93408.56;4227309;27;20047;-77
2023/08/06 03:32:14;;;;;;;;;;;;;;;20.64;77.52;93417.81;4225029;28;20022;-78
2023/08/06 03:34:20;;;;;;;;;;;;;;;20.60;78.21;93445.16;4231603;27;20335;-77
2023/08/06 03:36:22;;;;;;;;;;;;;;;20.60;78.25;93458.47;4209773;28;20028;-76
2023/08/06 03:38:25;;;;;;;;;;;;;;;20.63;77.81;93463.31;4240939;27;19934;-76
2023/08/06 03:40:27;;;;;;;;;;;;;;;20.57;78.46;93449.16;4239591;28;19938;-80
2023/08/06 03:42:28;;;;;;;;;;;;;;;20.52;78.81;93442.94;4242129;28;19977;-78
2023/08/06 03:44:30;;;;;;;;;;;;;;;20.44;78.37;93458.28;4217116;28;20075;-76
2023/08/06 03:46:35;;;;;;;;;;;;;;;20.38;78.33;93447.84;4242065;28;19931;-77
2023/08/06 03:48:36;;;;;;;;;;;;;;;20.28;78.54;93434.44;4233604;28;19938;-79
2023/08/06 03:50:38;;;;;;;;;;;;;;;20.22;78.86;93438.94;4238765;28;20010;-79
2023/08/06 03:52:40;;;;;;;;;;;;;;;20.10;79.64;93460.31;4245889;27;20038;-78
2023/08/06 03:54:44;;;;;;;;;;;;;;;20.07;78.99;93462.66;4238715;28;20362;-77
2023/08/06 03:56:45;;;;;;;;;;;;;;;20.06;79.17;93459.19;4241148;28;20015;-79
2023/08/06 03:58:47;;;;;;;;;;;;;;;19.90;77.73;93463.53;4239910;28;20228;-78
2023/08/06 04:00:57;;;;;;;;;;;;;;;19.87;78.17;93471.97;4226473;28;19946;-80
2023/08/06 04:03:01;;;;;;;;;;;;;;;19.70;78.67;93474.69;4223813;28;20060;-79
2023/08/06 04:05:03;;;;;;;;;;;;;;;19.55;79.69;93469.13;4216964;28;19980;-78
2023/08/06 04:07:06;;;;;;;;;;;;;;;19.70;79.33;93473.88;4235983;28;19927;-79
2023/08/06 04:09:07;;;;;;;;;;;;;;;19.89;79.54;93480.50;4235558;28;19984;-79
2023/08/06 04:11:09;;;;;;;;;;;;;;;20.08;78.70;93480.22;4239089;28;19946;-81
2023/08/06 04:13:11;;;;;;;;;;;;;;;20.22;78.15;93476.94;4239516;28;20039;-82
2023/08/06 04:15:13;;;;;;;;;;;;;;;20.26;77.86;93485.22;4230098;28;20290;-81
2023/08/06 04:17:14;;;;;;;;;;;;;;;20.24;77.28;93482.00;4237689;27;19935;-78
2023/08/06 04:19:16;;;;;;;;;;;;;;;20.22;77.75;93476.94;4202814;28;20060;-80
2023/08/06 04:21:20;;;;;;;;;;;;;;;20.01;78.19;93478.56;4231432;27;19962;-78
2023/08/06 04:23:22;;;;;;;;;;;;;;;19.94;78.26;93471.78;4240755;28;19945;-80
2023/08/06 04:25:24;;;;;;;;;;;;;;;19.92;78.95;93464.09;4250888;28;19948;-82
2023/08/06 04:27:26;;;;;;;;;;;;;;;20.02;79.35;93461.53;4260818;28;20074;-78
2023/08/06 04:29:28;;;;;;;;;;;;;;;20.19;79.52;93458.81;4258714;28;20127;-78
2023/08/06 04:31:29;;;;;;;;;;;;;;;20.34;77.98;93458.19;4259123;27;19938;-77
2023/08/06 04:33:31;;;;;;;;;;;;;;;20.46;77.20;93456.19;4250506;28;19923;-76
2023/08/06 04:35:33;;;;;;;;;;;;;;;20.58;77.55;93457.91;4245726;27;19937;-77
2023/08/06 04:37:34;;;;;;;;;;;;;;;20.69;78.08;93450.84;4260593;27;19991;-78
2023/08/06 04:39:36;;;;;;;;;;;;;;;20.80;77.21;93445.38;4258845;27;19965;-77
2023/08/06 04:41:38;;;;;;;;;;;;;;;20.81;76.31;93432.88;4229412;28;19941;-78
2023/08/06 04:43:39;;;;;;;;;;;;;;;20.89;75.86;93424.41;4260313;27;19927;-78
2023/08/06 04:45:48;;;;;;;;;;;;;;;20.98;75.42;93422.09;4257700;27;19988;-79
2023/08/06 04:47:50;;;;;;;;;;;;;;;21.07;74.76;93421.34;4230106;28;19936;-76
2023/08/06 04:49:52;;;;;;;;;;;;;;;21.04;74.26;93413.09;4231035;28;19963;-78
2023/08/06 04:51:54;;;;;;;;;;;;;;;21.07;74.82;93399.25;4246561;27;19946;-80
2023/08/06 04:53:57;;;;;;;;;;;;;;;21.10;74.25;93404.09;4240341;27;19975;-78
2023/08/06 04:55:58;;;;;;;;;;;;;;;21.14;74.07;93401.69;4241702;27;20347;-80
2023/08/06 04:58:00;;;;;;;;;;;;;;;21.12;73.99;93396.63;4238198;27;20025;-78
2023/08/06 05:00:02;;;;;;;;;;;;;;;21.00;74.32;93383.50;4220543;28;20067;-78
2023/08/06 05:02:03;;;;;;;;;;;;;;;20.76;74.66;93372.41;4231057;27;19938;-78
2023/08/06 05:04:05;;;;;;;;;;;;;;;20.57;76.06;93384.47;4237476;27;19923;-76
2023/08/06 05:06:07;;;;;;;;;;;;;;;20.32;76.90;93395.66;4238102;27;19975;-80
2023/08/06 05:08:13;;;;;;;;;;;;;;;20.01;78.26;93388.16;4230568;28;19935;-80
2023/08/06 05:10:15;;;;;;;;;;;;;;;19.87;79.22;93389.59;4221762;27;19935;-79
2023/08/06 05:12:16;;;;;;;;;;;;;;;19.90;79.75;93394.44;4238265;27;19934;-80
2023/08/06 05:14:18;;;;;;;;;;;;;;;20.15;79.40;93393.09;4237931;27;20039;-79
2023/08/06 05:16:20;;;;;;;;;;;;;;;20.33;78.11;93392.75;4235490;27;19924;-79
2023/08/06 05:18:21;;;;;;;;;;;;;;;20.61;77.50;93390.91;4240081;27;19931;-80
2023/08/06 05:20:23;;;;;;;;;;;;;;;20.86;76.27;93403.63;4246530;27;19953;-80
2023/08/06 05:22:25;;;;;;;;;;;;;;;21.13;75.05;93400.91;4249952;27;19933;-79
2023/08/06 05:24:26;;;;;;;;;;;;;;;21.15;74.59;93390.78;4230596;27;20023;-80
2023/08/06 05:26:28;;;;;;;;;;;;;;;21.29;73.85;93399.13;4240545;27;20026;-81
2023/08/06 05:28:30;;;;;;;;;;;;;;;21.38;73.74;93396.78;4238500;27;19927;-79
2023/08/06 05:30:32;;;;;;;;;;;;;;;21.50;73.73;93392.09;4216078;28;20011;-80
2023/08/06 05:32:34;;;;;;;;;;;;;;;21.33;74.01;93396.75;4235539;27;19927;-80
2023/08/06 05:34:36;;;;;;;;;;;;;;;21.42;74.03;93395.25;4233447;27;19959;-80
2023/08/06 05:36:38;;;;;;;;;;;;;;;21.47;74.24;93393.41;4229141;27;19931;-78
2023/08/06 05:38:39;;;;;;;;;;;;;;;21.63;74.12;93390.81;4234272;27;19938;-80
2023/08/06 05:40:41;;;;;;;;;;;;;;;21.69;73.74;93389.78;4238936;27;19966;-80
2023/08/06 05:42:43;;;;;;;;;;;;;;;21.76;73.11;93390.34;4221520;28;19951;-80
2023/08/06 05:44:44;;;;;;;;;;;;;;;21.54;73.85;93390.53;4220740;28;19955;-79
2023/08/06 05:46:46;;;;;;;;;;;;;;;21.49;72.74;93390.50;4243517;27;20374;-80
2023/08/06 05:48:48;;;;;;;;;;;;;;;21.59;71.04;93385.19;4242809;27;20487;-80
2023/08/06 05:50:49;;;;;;;;;;;;;;;21.47;70.70;93398.75;4228306;27;19928;-79
2023/08/06 05:52:51;;;;;;;;;;;;;;;21.50;69.41;93393.97;4234279;27;19923;-79
2023/08/06 05:54:55;;;;;;;;;;;;;;;21.66;69.10;93399.13;4240246;27;20018;-81
2023/08/06 05:56:56;;;;;;;;;;;;;;;21.83;68.55;93404.25;4215394;28;20030;-79
2023/08/06 05:58:58;;;;;;;;;;;;;;;22.02;67.67;93409.13;4234111;27;20022;-80
2023/08/06 06:01:00;;;;;;;;;;;;;;;21.94;65.83;93413.09;4239040;27;20298;-81
2023/08/06 06:03:02;;;;;;;;;;;;;;;22.00;65.80;93412.03;4238894;27;20107;-79
2023/08/06 06:05:04;;;;;;;;;;;;;;;21.98;65.67;93411.50;4241763;27;19975;-79
2023/08/06 06:07:05;;;;;;;;;;;;;;;21.60;66.77;93428.66;4235157;27;19988;-80
2023/08/06 06:09:07;;;;;;;;;;;;;;;21.73;66.80;93422.88;4234249;27;20019;-79
2023/08/06 06:11:09;;;;;;;;;;;;;;;22.03;66.72;93419.53;4223966;28;20027;-79
2023/08/06 06:13:12;;;;;;;;;;;;;;;22.20;65.77;93421.16;4222661;28;19936;-80
2023/08/06 06:15:13;;;;;;;;;;;;;;;22.33;65.36;93426.06;4244583;27;19935;-82
2023/08/06 06:17:15;;;;;;;;;;;;;;;22.44;65.47;93421.56;4243720;27;20270;-80
2023/08/06 06:19:17;;;;;;;;;;;;;;;22.37;64.21;93426.31;4216998;28;20014;-80
2023/08/06 06:21:19;;;;;;;;;;;;;;;22.45;64.25;93434.59;4230992;27;19938;-78
2023/08/06 06:23:20;;;;;;;;;;;;;;;22.31;63.19;93441.53;4242986;27;20008;-79
2023/08/06 06:25:22;;;;;;;;;;;;;;;21.98;64.28;93448.81;4242719;27;20295;-78
2023/08/06 06:27:24;;;;;;;;;;;;;;;21.59;65.44;93454.50;4244442;27;19930;-83
2023/08/06 06:29:25;;;;;;;;;;;;;;;21.56;65.92;93455.00;4230444;27;19975;-81
2023/08/06 06:31:27;;;;;;;;;;;;;;;21.63;65.68;93463.56;4242835;27;19962;-78
2023/08/06 06:33:29;;;;;;;;;;;;;;;21.79;66.04;93450.31;4241984;27;20014;-81
2023/08/06 06:35:30;;;;;;;;;;;;;;;21.84;65.65;93458.38;4234187;27;19928;-79
2023/08/06 06:37:32;;;;;;;;;;;;;;;21.81;65.96;93458.88;4246750;27;19984;-81
2023/08/06 06:39:34;;;;;;;;;;;;;;;21.89;65.73;93464.50;4243295;27;20437;-82
2023/08/06 06:41:36;;;;;;;;;;;;;;;21.29;67.97;93481.69;4234473;27;19932;-80
2023/08/06 06:43:39;;;;;;;;;;;;;;;21.37;67.76;93477.78;4239940;27;19924;-81
2023/08/06 06:45:41;;;;;;;;;;;;;;;21.49;67.20;93489.09;4236374;27;19923;-80
2023/08/06 06:47:44;;;;;;;;;;;;;;;21.61;66.71;93480.88;4238993;27;19976;-81
2023/08/06 06:49:45;;;;;;;;;;;;;;;21.64;65.73;93481.19;4235325;27;19931;-79
2023/08/06 06:51:47;;;;;;;;;;;;;;;21.69;64.81;93491.06;4229659;27;19957;-79
2023/08/06 06:53:49;;;;;;;;;;;;;;;21.80;64.41;93483.94;4233279;27;19978;-83
2023/08/06 06:55:50;;;;;;;;;;;;;;;21.83;64.03;93496.75;4242519;27;19923;-81
2023/08/06 06:57:52;;;;;;;;;;;;;;;21.99;63.59;93495.78;4240255;27;19927;-82
2023/08/06 06:59:54;;;;;;;;;;;;;;;22.12;63.44;93509.72;4240464;27;20321;-79
2023/08/06 07:01:55;;;;;;;;;;;;;;;22.02;64.05;93502.44;4221124;28;19970;-80
2023/08/06 07:03:58;;;;;;;;;;;;;;;22.29;62.44;93507.69;4227531;27;20431;-81
2023/08/06 07:06:00;;;;;;;;;;;;;;;22.00;62.45;93517.91;4227432;27;20015;-80
2023/08/06 07:08:02;;;;;;;;;;;;;;;21.70;63.35;93518.53;4231939;27;19928;-80
2023/08/06 07:10:04;;;;;;;;;;;;;;;21.79;62.51;93514.31;4220630;28;19934;-79
2023/08/06 07:12:05;;;;;;;;;;;;;;;22.09;62.44;93514.50;4228175;27;19932;-80
2023/08/06 07:14:07;;;;;;;;;;;;;;;22.40;60.51;93524.53;4235953;27;19924;-80
2023/08/06 07:16:10;;;;;;;;;;;;;;;22.58;60.36;93513.38;4212534;28;19942;-78
2023/08/06 07:18:12;;;;;;;;;;;;;;;22.67;59.11;93521.66;4230408;27;19934;-80
2023/08/06 07:20:14;;;;;;;;;;;;;;;22.84;59.41;93521.44;4243761;27;20007;-79
2023/08/06 07:22:16;;;;;;;;;;;;;;;22.91;58.86;93522.00;4228897;28;20053;-79
2023/08/06 07:24:17;;;;;;;;;;;;;;;23.13;57.88;93516.47;4243847;27;19927;-80
2023/08/06 07:26:19;;;;;;;;;;;;;;;23.17;58.26;93520.22;4215238;27;19938;-81
2023/08/06 07:28:22;;;;;;;;;;;;;;;23.20;57.12;93527.69;4235250;27;19927;-80
2023/08/06 07:30:23;;;;;;;;;;;;;;;23.10;55.28;93522.31;4243475;27;19927;-81
2023/08/06 07:32:28;;;;;;;;;;;;;;;23.03;56.02;93517.25;4241178;27;19923;-81
2023/08/06 07:34:29;;;;;;;;;;;;;;;22.93;55.62;93519.88;4195956;28;20023;-82
2023/08/06 07:36:31;;;;;;;;;;;;;;;22.79;56.01;93514.22;4237413;27;19945;-81
2023/08/06 07:38:33;;;;;;;;;;;;;;;22.86;55.54;93514.78;4236670;27;19967;-80
2023/08/06 07:40:35;;;;;;;;;;;;;;;22.66;56.34;93525.41;4239326;28;20103;-80
2023/08/06 07:42:37;;;;;;;;;;;;;;;22.84;55.88;93510.75;4238081;28;19924;-79
2023/08/06 07:44:39;;;;;;;;;;;;;;;23.08;56.01;93511.91;4239906;28;19927;-80
2023/08/06 07:46:41;;;;;;;;;;;;;;;22.96;55.54;93513.22;4238525;28;20939;-81
2023/08/06 07:48:43;;;;;;;;;;;;;;;22.97;56.17;93514.78;4227900;28;19924;-79
2023/08/06 07:50:50;;;;;;;;;;;;;;;23.15;55.23;93509.00;4226892;28;19924;-81
2023/08/06 07:52:51;;;;;;;;;;;;;;;23.41;55.20;93504.44;4243587;28;19923;-84
2023/08/06 07:54:53;;;;;;;;;;;;;;;23.63;54.46;93508.72;4244242;28;20007;-80
2023/08/06 07:56:55;;;;;;;;;;;;;;;23.67;53.51;93502.56;4238347;28;19939;-82
2023/08/06 07:58:56;;;;;;;;;;;;;;;23.72;54.02;93507.09;4240227;28;19981;-79
2023/08/06 08:00:58;;;;;;;;;;;;;;;23.73;53.94;93510.59;4243387;28;19927;-80
2023/08/06 08:03:01;;;;;;;;;;;;;;;23.73;52.74;93507.91;4247794;27;19969;-82
2023/08/06 08:05:05;;;;;;;;;;;;;;;23.82;53.17;93499.09;4228902;28;20282;-83
2023/08/06 08:07:11;;;;;;;;;;;;;;;24.00;53.58;93500.38;4220356;28;19931;-82
2023/08/06 08:09:13;;;;;;;;;;;;;;;23.69;52.71;93504.97;4226315;28;19946;-80
2023/08/06 08:11:15;;;;;;;;;;;;;;;23.81;52.93;93502.03;4236644;27;19927;-83
2023/08/06 08:13:19;;;;;;;;;;;;;;;24.00;52.77;93513.75;4240056;27;19924;-81
2023/08/06 08:15:20;;;;;;;;;;;;;;;23.93;52.23;93518.59;4242720;27;19931;-81
2023/08/06 08:17:22;;;;;;;;;;;;;;;23.96;51.94;93511.88;4245196;27;19923;-81
2023/08/06 08:19:24;;;;;;;;;;;;;;;24.17;51.83;93509.97;4243279;27;20127;-84
2023/08/06 08:21:25;;;;;;;;;;;;;;;24.41;51.26;93505.59;4244727;27;19982;-79
2023/08/06 08:23:27;;;;;;;;;;;;;;;24.21;52.24;93501.13;4246049;27;20007;-80
2023/08/06 08:25:29;;;;;;;;;;;;;;;24.32;51.84;93515.25;4246988;27;19950;-79
2023/08/06 08:27:32;;;;;;;;;;;;;;;24.37;51.22;93506.41;4214409;28;19999;-81
2023/08/06 08:29:34;;;;;;;;;;;;;;;24.71;51.67;93510.03;4232518;27;20274;-77
2023/08/06 08:31:39;;;;;;;;;;;;;;;24.82;50.12;93510.78;4223915;28;19928;-80
2023/08/06 08:33:40;;;;;;;;;;;;;;;24.87;50.48;93512.66;4242797;27;19935;-80
2023/08/06 08:35:42;;;;;;;;;;;;;;;24.28;54.11;93517.66;4234610;27;20305;-80
2023/08/06 08:37:45;;;;;;;;;;;;;;;23.89;54.86;93504.16;4240300;27;19930;-81
2023/08/06 08:39:47;;;;;;;;;;;;;;;23.98;55.17;93501.72;4238010;27;19927;-78
2023/08/06 08:41:48;;;;;;;;;;;;;;;23.63;56.64;93498.81;4227385;27;19924;-80
2023/08/06 08:43:53;;;;;;;;;;;;;;;23.58;56.94;93506.84;4247916;27;19927;-80
2023/08/06 08:45:58;;;;;;;;;;;;;;;23.57;56.52;93507.09;4244475;27;20303;-81
2023/08/06 08:48:00;;;;;;;;;;;;;;;23.68;56.61;93503.34;4238284;27;19931;-81
2023/08/06 08:50:02;;;;;;;;;;;;;;;23.61;56.37;93506.28;4229003;28;20247;-81
2023/08/06 08:52:06;;;;;;;;;;;;;;;23.42;55.68;93491.88;4221535;27;19924;-80
2023/08/06 08:54:08;;;;;;;;;;;;;;;23.15;55.17;93489.50;4225113;28;19957;-82
2023/08/06 08:56:12;;;;;;;;;;;;;;;23.35;54.95;93478.00;4221716;28;19932;-80
2023/08/06 08:58:14;;;;;;;;;;;;;;;23.64;54.24;93478.22;4228035;27;19924;-80
2023/08/06 09:00:17;;;;;;;;;;;;;;;23.86;53.97;93485.97;4237134;27;19927;-81
2023/08/06 09:02:19;;;;;;;;;;;;;;;23.68;54.58;93480.09;4215551;28;20332;-80
2023/08/06 09:04:20;;;;;;;;;;;;;;;23.31;56.34;93481.19;4204774;28;19940;-82
2023/08/06 09:06:24;;;;;;;;;;;;;;;23.04;57.87;93489.47;4218151;28;20392;-81
2023/08/06 09:08:27;;;;;;;;;;;;;;;22.84;58.69;93484.88;4242320;27;20231;-78
2023/08/06 09:10:31;;;;;;;;;;;;;;;23.04;58.51;93491.34;4221211;28;20023;-81
2023/08/06 09:12:33;;;;;;;;;;;;;;;23.08;57.98;93473.69;4238128;27;19931;-81
2023/08/06 09:14:35;;;;;;;;;;;;;;;23.14;55.23;93474.50;4237303;27;20635;-82
2023/08/06 09:16:37;;;;;;;;;;;;;;;23.23;56.10;93471.06;4223312;28;19932;-80
2023/08/06 09:18:39;;;;;;;;;;;;;;;23.43;54.88;93469.44;4243992;27;19963;-80
2023/08/06 09:20:41;;;;;;;;;;;;;;;23.60;53.07;93464.59;4243746;27;19970;-79
2023/08/06 09:22:44;;;;;;;;;;;;;;;23.88;52.44;93460.56;4230509;27;19923;-82
2023/08/06 09:24:46;;;;;;;;;;;;;;;24.05;52.58;93475.50;4224196;28;19960;-82
2023/08/06 09:26:50;;;;;;;;;;;;;;;24.37;51.80;93467.09;4202511;28;20322;-79
2023/08/06 09:28:54;;;;;;;;;;;;;;;24.67;51.95;93452.78;4228982;27;19981;-79
2023/08/06 09:31:01;;;;;;;;;;;;;;;24.66;50.86;93461.06;4244530;27;19931;-82
2023/08/06 09:33:03;;;;;;;;;;;;;;;24.92;49.95;93456.34;4212970;28;19928;-83
2023/08/06 09:35:05;;;;;;;;;;;;;;;25.01;49.40;93453.88;4248368;27;19930;-78
2023/08/06 09:37:09;;;;;;;;;;;;;;;25.19;48.03;93458.56;4245509;27;19924;-79
2023/08/06 09:39:15;;;;;;;;;;;;;;;25.13;46.87;93447.09;4228394;28;19977;-80
2023/08/06 09:41:28;;;;;;;;;;;;;;;25.13;46.49;93446.28;4233846;27;19927;-84
2023/08/06 09:43:30;;;;;;;;;;;;;;;25.24;46.97;93437.09;4245343;27;20408;-78
2023/08/06 09:45:33;;;;;;;;;;;;;;;25.33;46.85;93440.78;4225435;27;20685;-82
2023/08/06 09:47:36;;;;;;;;;;;;;;;25.39;47.04;93448.78;4229629;28;19927;-80
2023/08/06 09:49:45;;;;;;;;;;;;;;;25.48;46.36;93444.41;4224379;28;19995;-82
2023/08/06 09:51:50;;;;;;;;;;;;;;;25.60;46.74;93455.56;4216215;27;20044;-80
2023/08/06 09:53:56;;;;;;;;;;;;;;;25.14;47.39;93464.78;4228192;28;20312;-79
2023/08/06 09:55:58;;;;;;;;;;;;;;;24.58;48.68;93461.66;4233167;27;20316;-82
2023/08/06 09:58:00;;;;;;;;;;;;;;;24.58;48.09;93456.28;4236333;27;20019;-82
2023/08/06 10:00:02;;;;;;;;;;;;;;;24.45;47.34;93455.78;4216686;28;20018;-80
2023/08/06 10:02:05;;;;;;;;;;;;;;;24.59;48.11;93447.19;4229750;28;19959;-79
2023/08/06 10:04:08;;;;;;;;;;;;;;;24.71;47.67;93467.19;4222390;28;19950;-79
2023/08/06 10:06:24;;;;;;;;;;;;;;;24.56;47.58;93472.63;4234265;27;19924;-79
2023/08/06 10:08:26;;;;;;;;;;;;;;;24.28;48.85;93474.06;4243134;27;19927;-83
2023/08/06 10:10:27;;;;;;;;;;;;;;;24.49;48.63;93474.81;4215626;28;20157;-79
2023/08/06 10:12:31;;;;;;;;;;;;;;;24.65;48.25;93475.53;4230528;27;19934;-80
2023/08/06 10:14:33;;;;;;;;;;;;;;;24.85;46.39;93469.25;4199794;28;20298;-82
2023/08/06 10:16:37;;;;;;;;;;;;;;;25.22;45.58;93465.28;4217370;27;20478;-79
2023/08/06 10:18:39;;;;;;;;;;;;;;;25.38;45.39;93469.41;4226911;27;20006;-81
2023/08/06 10:20:40;;;;;;;;;;;;;;;25.39;45.25;93459.50;4224245;28;19947;-81
2023/08/06 10:22:43;;;;;;;;;;;;;;;25.08;45.41;93475.78;4220572;28;19932;-80
2023/08/06 10:24:58;;;;;;;;;;;;;;;24.42;46.39;93464.38;4232986;27;19927;-83
2023/08/06 10:27:00;;;;;;;;;;;;;;;24.68;46.73;93470.41;4239643;27;20071;-81
2023/08/06 10:29:23;;;;;;;;;;;;;;;24.85;46.09;93470.06;4235755;27;20354;-85
2023/08/06 10:31:44;;;;;;;;;;;;;;;25.07;45.94;93472.31;4227705;27;19935;-81
2023/08/06 10:33:47;;;;;;;;;;;;;;;25.24;46.11;93465.78;4216386;28;19975;-81
2023/08/06 10:35:50;;;;;;;;;;;;;;;25.12;45.81;93487.53;4224207;28;19955;-81
2023/08/06 10:37:53;;;;;;;;;;;;;;;25.07;46.60;93483.03;4231194;27;19931;-81
2023/08/06 10:39:55;;;;;;;;;;;;;;;25.05;47.43;93482.50;4222584;28;20320;-80